Terminal Aerodrome Forecast
Issued by NWS

Home | Current Version | Previous Version | Text Only | Print | Product List | Glossary On
Versions: 1 2 3 4 5 6 7 8 9 10 11 12 13 14
317
FTAK31 PAJN 212340
TAFAWG
TAF
PAWG 212340Z 2200/2224 11010KT P6SM -SHRA SCT035 BKN060
      TEMPO 2200/2204 11010G20KT SCT020 BKN035 OVC060
     FM221500 10006KT 6SM -SHRA BKN025 OVC040
     FM222100 11008KT 5SM -SHRA OVC025
      AMD LTD TO CLD VIS AND WIND 2206/2215=

USA.gov is the U.S. government's official web portal to all federal, state and local government web resources and services.